Main page
METAR-TAF:

METAR-TAF

Airports :

Tunis–Carthage International Airport

Tunis, Tunisia

latitude: 36-50N, longitude: 010-14E, elevation: 3 m

Current weather observation

The report was made 21 minutes ago, at 23:00 UTC
Wind 9 kt from the West/Southwest
Temperature 12°C
Humidity 67%
Pressure 1011 hPa
Visibility 10 km or more
Few clouds at a height of 2600 ft
Scattered clouds at a height of 4600 ft

METAR: DTTA 212300Z 25009KT 9999 FEW026 SCT046 12/06 Q1011 NOSIG

Time: 00:21 (23:21 UTC)

Forecast

The report was made 6 hours and 21 minutes ago, at 17:00 UTC
Forecast valid from 21 at 18 UTC to 22 at 18 UTC
Wind 15 kt from the West
Visibility 10 km or more
Scattered clouds at a height of 2300 ft
Few clouds at a height of 2600 ft
Probability 40% :
Temporary
from 21 at 18 UTC to 22 at 06 UTC
Few clouds at a height of 2600 ft, Cumulonimbus.
rain
Becoming
from 22 at 14 UTC to 22 at 16 UTC
Wind 5 kt from the West

TAF: DTTA 211700Z 2118/2218 26015KT 9999 SCT023 FEW026 PROB40 TEMPO 2118/2206 RA FEW026CB BECMG 2214/2216 26005KT

Weather observations and forecasts of more than 4000 airports (METAR and TAF reports).

The available stations are represented by yellow and red dots on the map.

Hover mouse over dot to see the name of the station.

Then click to see weather observations and forecasts.

To change the map : click on the green buttons with a black cross to zoom in, on the green button with a dash to zoom out, or on the green arrows for adjacent maps.


METAR-TAF: